Nearby METAR Reports

 

KDWH - Houston/Dw Hooks, Texas, USA
Distance from station: WNW 3mi, 6km
Updated: 12/08/2019 8:53am
Mist, Mostly cloudy
Mist, Mostly cloudy
 Wind from calm
Wind: Calm
Temperature: 54°F , 12°C
Dew Point: 52°F , 11°C
Humidity: 94%
Barometer: 30.12 inHg , 1020 hPa
Summary: Mist
Clouds: Mostly cloudy
Visibility: 3 miles , 5 km
Cloud details: Mostly cloudy 500 ft
2019/12/08 14:53 KDWH 081453Z 00000KT 3SM BR BKN005 12/11 A3012 RMK AO2 SLP198 T01220106 53006
KIAH - Houston/Intnl, Texas, USA
Distance from station: ESE 9mi, 14km
Updated: 12/08/2019 8:53am
Mist, Mostly cloudy
Mist, Mostly cloudy
 Wind from ESE
Wind: ESE 6 mph , 9 km/h
Temperature: 55°F , 13°C
Dew Point: 54°F , 12°C
Humidity: 94%
Barometer: 30.12 inHg , 1020 hPa
Summary: Mist
Clouds: Mostly cloudy
Visibility: 5 miles , 8 km
Cloud details: Mostly cloudy 25000 ft
2019/12/08 14:53 KIAH 081453Z 12005KT 5SM BR BKN250 13/12 A3012 RMK AO2 SLP198 T01280117 53004
 
KCXO - Conroe, Texas, USA
Distance from station: NNE 21mi, 34km
Updated: 12/08/2019 8:53am
Fog, Overcast
Fog, Overcast
 Wind from SE
Wind: SE 5 mph , 7 km/h
Temperature: 52°F , 11°C
Dew Point: 50°F , 10°C
Humidity: 94%
Barometer: 30.13 inHg , 1020.3 hPa
Summary: Fog
Clouds: Overcast
Visibility: 1/2 mile , 0.8 km
Cloud details: Overcast 200 ft
2019/12/08 14:53 KCXO 081453Z 14004KT 1/2SM FG OVC002 11/10 A3013 RMK AO2 SLP201 T01060100 53007
KMCJ - Houston/Univ, Texas, USA
Distance from station: SSE 24mi, 39km
Updated: 12/08/2019 9:15am
Mist, Clear
Mist, Clear
 Wind from calm
Wind: Calm
Temperature: 59°F , 15°C
Dew Point: 57°F , 14°C
Humidity: 94%
Barometer: 30.11 inHg , 1019.6 hPa
Summary: Mist
Clouds: Clear
Visibility: 6 miles , 10 km
2019/12/08 15:15 KMCJ 081515Z AUTO 00000KT 6SM BR CLR 15/14 A3011 RMK A01
 
KTME - Houston Exec, Texas, USA
Distance from station: SW 30mi, 48km
Updated: 12/08/2019 9:15am
Mist, Clear
Mist, Clear
 Wind from SE
Wind: SE 7 mph , 11 km/h
Temperature: 59°F , 15°C
Dew Point: 59°F , 15°C
Humidity: 100%
Barometer: 30.13 inHg , 1020.3 hPa
Summary: Mist
Clouds: Clear
Visibility: 6 miles , 10 km
2019/12/08 15:15 KTME 081515Z AUTO 13006KT 6SM BR CLR 15/15 A3013 RMK AO2
KHOU - Houston/Hobby, Texas, USA
Distance from station: SSE 32mi, 51km
Updated: 12/08/2019 8:53am
Mist, Partly cloudy
Mist, Partly cloudy
 Wind from E
Wind: E 6 mph , 9 km/h
Temperature: 59°F , 15°C
Dew Point: 55°F , 13°C
Humidity: 88%
Barometer: 30.11 inHg , 1019.6 hPa
Summary: Mist
Clouds: Partly cloudy
Visibility: 5 miles , 8 km
Cloud details: Partly cloudy 25000 ft
2019/12/08 14:53 KHOU 081453Z 10005KT 5SM BR SCT250 15/13 A3011 RMK AO2 SLP199 T01500128 53004
 
KSGR - Houston/Sugar La, Texas, USA
Distance from station: SSW 32mi, 51km
Updated: 12/08/2019 8:53am
Clear
Clear
 Wind from E
Wind: E 3 mph , 6 km/h
Temperature: 59°F , 15°C
Dew Point: 55°F , 13°C
Humidity: 88%
Barometer: 30.10 inHg , 1019.3 hPa
Clouds: Clear
Visibility: 7 miles , 11 km
2019/12/08 14:53 KSGR 081453Z 10003KT 7SM CLR 15/13 A3010 RMK AO2 SLP196 T01500133 53003
K6R3 - Cleveland Muni, Texas, USA
Distance from station: NE 36mi, 58km
Updated: 12/08/2019 9:15am
Fog, Overcast
Fog, Overcast
 Wind from calm
Wind: Calm
Temperature: 50°F , 10°C
Dew Point: 50°F , 10°C
Humidity: 100%
Barometer: 30.15 inHg , 1021 hPa
Summary: Fog
Clouds: Overcast
Visibility: 1/4 mile , 0.4 km
Cloud details: Overcast 200 ft
2019/12/08 15:15 K6R3 081515Z AUTO 00000KT 1/4SM FG OVC002 10/10 A3015 RMK AO2 T00980098
 
KAXH - Houston/Southwst, Texas, USA
Distance from station: S 37mi, 60km
Updated: 12/08/2019 9:15am
Clear
Clear
 Wind from E
Wind: E 3 mph , 6 km/h
Temperature: 57°F , 14°C
Dew Point: 57°F , 14°C
Humidity: 100%
Barometer: 30.12 inHg , 1020 hPa
Clouds: Clear
Visibility: 10 miles , 16 km
2019/12/08 15:15 KAXH 081515Z AUTO 10003KT 10SM CLR 14/14 A3012 RMK AO2 T01420142
KEFD - Houston/Ellingto, Texas, USA
Distance from station: SSE 37mi, 60km
Updated: 12/08/2019 8:50am
Mist, Mostly cloudy
Mist, Mostly cloudy
 Wind from E
Wind: E 5 mph , 7 km/h
Temperature: 59°F , 15°C
Dew Point: 57°F , 14°C
Humidity: 94%
Barometer: 30.10 inHg , 1019.3 hPa
Summary: Mist
Clouds: Mostly cloudy
Visibility: 7 miles , 11 km
Cloud details: Mostly cloudy 25000 ft
2019/12/08 14:50 KEFD 081450Z 09004KT 7SM BR BKN250 15/14 A3010
 
KLVJ - Houston, Texas, USA
Distance from station: SSE 40mi, 64km
Updated: 12/08/2019 8:53am
Mist, Clear
Mist, Clear
 Wind from E
Wind: E 6 mph , 9 km/h
Temperature: 59°F , 15°C
Dew Point: 55°F , 13°C
Humidity: 88%
Barometer: 30.12 inHg , 1020 hPa
Summary: Mist
Clouds: Clear
Visibility: 3 miles , 5 km
2019/12/08 14:53 KLVJ 081453Z AUTO 10005KT 3SM BR CLR 15/13 A3012 RMK AO2 SLP197 T01500133 51003
KUTS - Huntsville, Texas, USA
Distance from station: N 48mi, 78km
Updated: 12/08/2019 9:23am
Haze, Overcast
Haze, Overcast
 Wind from SSE
Wind: SSE 6 mph , 9 km/h
Temperature: 55°F , 13°C
Dew Point: 52°F , 11°C
Humidity: 88%
Barometer: 30.10 inHg , 1019.3 hPa
Summary: Haze
Clouds: Overcast
Visibility: 6 miles , 10 km
Cloud details: Overcast 600 ft
2019/12/08 15:23 KUTS 081523Z AUTO 15005KT 6SM HZ OVC006 13/11 A3010 RMK AO2 T01330106